createdAt,value
2018-06-19T00:01:25.438Z,70.30
2018-06-19T00:03:52.707Z,70.40
2018-06-19T00:08:47.279Z,70.70
2018-06-19T00:11:14.588Z,70.10
2018-06-19T00:13:41.852Z,70.90
2018-06-19T00:16:09.119Z,70.50
2018-06-19T00:21:15.463Z,71.40
2018-06-19T00:23:42.776Z,71.70
2018-06-19T00:26:10.027Z,70.50
2018-06-19T00:28:39.823Z,71.70
2018-06-19T00:31:07.105Z,71.90
2018-06-19T00:33:34.395Z,71.90
2018-06-19T00:36:01.952Z,72.00
2018-06-19T00:38:29.234Z,72.10
2018-06-19T00:40:56.503Z,72.10
2018-06-19T00:43:23.760Z,72.10
2018-06-19T00:45:51.040Z,73.20
2018-06-19T00:48:18.307Z,72.20
2018-06-19T00:50:45.566Z,72.30
2018-06-19T00:53:12.867Z,71.90
2018-06-19T00:58:07.411Z,73.00
2018-06-19T01:00:34.664Z,73.20
2018-06-19T01:03:01.972Z,73.20
2018-06-19T01:05:29.231Z,73.30
2018-06-19T01:07:56.504Z,73.40
2018-06-19T01:10:23.774Z,73.40
2018-06-19T01:12:51.097Z,73.20
2018-06-19T01:15:18.370Z,73.40
2018-06-19T01:17:45.603Z,73.70
2018-06-19T01:20:12.882Z,73.90
2018-06-19T01:22:40.156Z,72.90
2018-06-19T01:27:34.691Z,74.00
2018-06-19T01:30:01.948Z,75.30
2018-06-19T01:37:24.106Z,74.50
2018-06-19T01:39:51.384Z,74.60
2018-06-19T01:42:18.646Z,74.80
2018-06-19T01:44:45.923Z,74.80
2018-06-19T01:47:13.188Z,74.80
2018-06-19T01:49:40.463Z,75.60
2018-06-19T01:52:07.741Z,75.10
2018-06-19T01:54:35.032Z,75.10
2018-06-19T01:57:02.324Z,75.30
2018-06-19T01:59:29.688Z,75.30
2018-06-19T02:01:56.986Z,75.40
2018-06-19T02:04:24.259Z,75.30
2018-06-19T02:06:51.539Z,75.50
2018-06-19T02:11:52.947Z,75.70
2018-06-19T02:14:20.203Z,75.70
2018-06-19T02:16:47.492Z,75.60
2018-06-19T02:19:14.755Z,75.70
2018-06-19T02:21:42.028Z,75.50
2018-06-19T02:24:09.301Z,75.30
2018-06-19T02:26:36.567Z,74.10
2018-06-19T02:29:03.900Z,75.00
2018-06-19T02:31:31.155Z,74.80
2018-06-19T02:33:58.398Z,73.60
2018-06-19T02:36:25.654Z,74.60
2018-06-19T02:38:52.914Z,74.40
2018-06-19T02:41:20.184Z,72.90
2018-06-19T02:43:47.482Z,73.10
2018-06-19T02:46:14.762Z,74.20
2018-06-19T02:48:42.031Z,74.20
2018-06-19T02:51:09.292Z,74.00
2018-06-19T02:53:36.562Z,73.90
2018-06-19T02:56:03.872Z,73.70
2018-06-19T02:58:31.171Z,74.10
2018-06-19T03:03:26.157Z,73.30
2018-06-19T03:05:53.420Z,73.70
2018-06-19T03:08:20.698Z,73.30
2018-06-19T03:10:47.967Z,73.40
2018-06-19T03:13:15.255Z,74.50
2018-06-19T03:15:42.487Z,73.10
2018-06-19T03:18:09.770Z,73.10
2018-06-19T03:20:37.042Z,72.50
2018-06-19T03:23:04.523Z,72.20
2018-06-19T03:25:31.762Z,72.70
2018-06-19T03:27:59.031Z,72.90
2018-06-19T03:30:26.292Z,72.30
2018-06-19T03:32:53.544Z,73.10
2018-06-19T03:35:20.803Z,72.20
2018-06-19T03:37:48.071Z,72.30
2018-06-19T03:40:15.316Z,72.30
2018-06-19T03:42:43.049Z,72.40
2018-06-19T03:45:10.301Z,72.50
2018-06-19T03:47:37.592Z,71.30
2018-06-19T03:50:05.195Z,72.20
2018-06-19T03:52:32.454Z,72.20
2018-06-19T03:54:59.695Z,72.50
2018-06-19T03:57:26.964Z,72.30
2018-06-19T03:59:54.240Z,72.10
2018-06-19T04:02:21.478Z,72.20
2018-06-19T04:04:48.758Z,71.00
2018-06-19T04:07:15.999Z,72.20
2018-06-19T04:09:43.258Z,72.80
2018-06-19T04:12:10.514Z,70.90
2018-06-19T04:14:37.779Z,72.60
2018-06-19T04:17:05.206Z,71.30
2018-06-19T04:19:32.443Z,71.30
2018-06-19T04:21:59.706Z,70.10
2018-06-19T04:24:27.812Z,71.00
2018-06-19T04:29:22.893Z,70.70
2018-06-19T04:31:50.164Z,70.80
2018-06-19T04:34:17.419Z,70.60
2018-06-19T04:36:45.315Z,69.90
2018-06-19T04:39:12.763Z,70.40
2018-06-19T04:41:40.257Z,70.10
2018-06-19T04:44:07.882Z,70.00
2018-06-19T04:46:35.303Z,69.70
2018-06-19T04:49:02.545Z,69.40
2018-06-19T04:51:29.787Z,68.20
2018-06-19T04:56:24.287Z,68.30
2018-06-19T04:58:51.558Z,68.40
2018-06-19T05:01:18.899Z,68.60
2018-06-19T05:03:46.156Z,67.80
2018-06-19T05:06:13.401Z,68.00
2018-06-19T05:08:40.919Z,67.70
2018-06-19T05:11:08.170Z,67.90
2018-06-19T05:13:35.408Z,68.20
2018-06-19T05:16:02.683Z,67.90
2018-06-19T05:18:29.923Z,67.70
2018-06-19T05:20:57.210Z,67.40
2018-06-19T05:23:24.475Z,67.60
2018-06-19T05:25:51.735Z,67.50
2018-06-19T05:28:18.975Z,67.40
2018-06-19T05:30:46.247Z,67.10
2018-06-19T05:33:13.502Z,67.50
2018-06-19T05:38:08.037Z,66.30
2018-06-19T05:40:35.280Z,65.80
2018-06-19T05:45:29.874Z,64.90
2018-06-19T05:47:57.166Z,64.80
2018-06-19T05:50:24.419Z,64.10
2018-06-19T05:52:51.770Z,63.80
2018-06-19T05:55:19.132Z,63.30
2018-06-19T05:57:46.392Z,63.20
2018-06-19T06:00:13.662Z,63.20
2018-06-19T06:02:40.922Z,63.10
2018-06-19T06:05:08.175Z,62.70
2018-06-19T06:07:35.435Z,62.90
2018-06-19T06:10:02.708Z,62.40
2018-06-19T06:12:29.972Z,63.50
2018-06-19T06:14:57.612Z,64.00
2018-06-19T06:19:52.156Z,63.90
2018-06-19T06:22:19.447Z,64.80
2018-06-19T06:24:46.687Z,63.90
2018-06-19T06:27:14.002Z,63.70
2018-06-19T06:29:41.256Z,63.10
2018-06-19T06:32:08.549Z,63.10
2018-06-19T06:34:35.800Z,62.30
2018-06-19T06:37:03.115Z,61.50
2018-06-19T06:39:30.388Z,62.00
2018-06-19T06:41:57.627Z,62.70
2018-06-19T06:44:24.896Z,61.30
2018-06-19T06:46:52.136Z,60.70
2018-06-19T06:49:19.419Z,59.50
2018-06-19T06:51:46.679Z,60.00
2018-06-19T06:54:13.979Z,59.50
2018-06-19T06:56:41.223Z,58.90
2018-06-19T06:59:08.470Z,58.70
2018-06-19T07:01:35.691Z,58.20
2018-06-19T07:04:03.247Z,57.40
2018-06-19T07:06:30.903Z,57.50
2018-06-19T07:08:58.181Z,57.60
2018-06-19T07:11:25.414Z,58.00
2018-06-19T07:13:52.675Z,57.40
2018-06-19T07:16:19.952Z,57.10
2018-06-19T07:18:47.510Z,57.00
2018-06-19T07:21:14.768Z,56.50
2018-06-19T07:23:42.000Z,55.70
2018-06-19T07:26:09.329Z,57.00
2018-06-19T07:28:36.543Z,55.90
2018-06-19T07:31:03.944Z,55.30
2018-06-19T07:33:31.211Z,55.60
2018-06-19T07:35:58.474Z,56.00
2018-06-19T07:38:25.801Z,56.20
2018-06-19T07:40:53.059Z,56.50
2018-06-19T07:43:20.363Z,56.20
2018-06-19T07:45:47.611Z,56.20
2018-06-19T07:48:14.864Z,56.80
2018-06-19T07:50:42.125Z,57.30
2018-06-19T07:53:09.395Z,56.40
2018-06-19T07:55:36.711Z,57.10
2018-06-19T07:58:03.993Z,55.40
2018-06-19T08:02:58.539Z,56.80
2018-06-19T08:05:25.799Z,56.70
2018-06-19T08:07:53.061Z,56.20
2018-06-19T08:10:20.293Z,55.30
2018-06-19T08:12:48.102Z,53.90
2018-06-19T08:20:10.291Z,53.40
2018-06-19T08:22:38.184Z,52.80
2018-06-19T08:25:05.447Z,53.40
2018-06-19T08:27:32.751Z,52.60
2018-06-19T08:29:59.958Z,51.60
2018-06-19T08:32:27.220Z,52.00
2018-06-19T08:34:54.477Z,52.40
2018-06-19T08:37:21.740Z,53.00
2018-06-19T08:39:48.964Z,53.50
2018-06-19T08:42:16.240Z,53.80
2018-06-19T08:44:43.481Z,54.10
2018-06-19T08:47:10.779Z,54.10
2018-06-19T08:49:38.087Z,54.50
2018-06-19T08:52:05.348Z,54.20
2018-06-19T08:54:32.612Z,53.90
2018-06-19T08:56:59.920Z,51.40
2018-06-19T08:59:27.218Z,50.60
2018-06-19T09:01:54.523Z,51.80
2018-06-19T09:04:21.869Z,51.30
2018-06-19T09:06:49.179Z,51.40
2018-06-19T09:09:16.437Z,49.30
2018-06-19T09:11:43.679Z,49.10
2018-06-19T09:14:10.927Z,49.00
2018-06-19T09:16:38.205Z,49.10
2018-06-19T09:19:05.485Z,47.80
2018-06-19T09:21:32.755Z,47.40
2018-06-19T09:26:27.335Z,50.00
2018-06-19T09:28:54.594Z,51.50
2018-06-19T09:31:21.949Z,51.90
2018-06-19T09:33:49.312Z,51.70
2018-06-19T09:36:16.555Z,51.70
2018-06-19T09:41:11.566Z,50.20
2018-06-19T09:43:38.854Z,49.20
2018-06-19T09:46:06.119Z,50.40
2018-06-19T09:48:33.374Z,51.00
2018-06-19T09:51:00.666Z,51.30
2018-06-19T09:53:27.927Z,52.10
2018-06-19T09:55:55.239Z,51.80
2018-06-19T09:58:22.620Z,52.00
2018-06-19T10:00:49.980Z,50.90
2018-06-19T10:03:17.378Z,50.10
2018-06-19T10:05:44.757Z,49.20
2018-06-19T10:08:11.980Z,47.30
2018-06-19T10:10:39.311Z,46.40
2018-06-19T10:13:07.052Z,46.10
2018-06-19T10:15:34.380Z,46.40
2018-06-19T10:18:01.691Z,44.70
2018-06-19T10:22:56.288Z,46.20
2018-06-19T10:25:23.659Z,46.20
2018-06-19T10:27:50.963Z,47.00
2018-06-19T10:32:45.596Z,47.50
2018-06-19T10:35:13.007Z,46.90
2018-06-19T10:37:40.267Z,46.50
2018-06-19T10:40:07.715Z,44.50
2018-06-19T10:42:35.031Z,44.00
2018-06-19T10:45:02.572Z,43.40
2018-06-19T10:47:29.908Z,43.00
2018-06-19T10:49:57.166Z,44.60
2018-06-19T10:54:51.975Z,44.60
2018-06-19T10:57:19.260Z,44.30
2018-06-19T10:59:46.768Z,42.90
2018-06-19T11:02:14.090Z,42.80
2018-06-19T11:04:41.335Z,39.60
2018-06-19T11:07:08.722Z,38.00
2018-06-19T11:09:35.964Z,37.70
2018-06-19T11:12:03.235Z,35.80
2018-06-19T11:14:30.467Z,35.20
2018-06-19T11:16:57.740Z,37.00
2018-06-19T11:19:25.006Z,39.00
2018-06-19T11:21:52.472Z,40.60
2018-06-19T11:24:19.730Z,41.00
2018-06-19T11:26:47.032Z,40.70
2018-06-19T11:29:14.339Z,41.20
2018-06-19T11:34:08.852Z,43.00
2018-06-19T11:41:33.519Z,41.80
2018-06-19T11:44:00.817Z,40.90
2018-06-19T11:46:28.068Z,40.20
2018-06-19T11:48:55.387Z,39.80
2018-06-19T11:51:22.743Z,39.00
2018-06-19T11:53:49.962Z,38.60
2018-06-19T11:56:17.223Z,39.80
2018-06-19T11:58:44.834Z,40.50
2018-06-19T12:01:12.146Z,40.30
2018-06-19T12:03:39.351Z,41.20
2018-06-19T12:06:06.604Z,42.20
2018-06-19T12:08:33.866Z,42.50
2018-06-19T12:11:01.167Z,43.40
2018-06-19T12:13:28.454Z,43.60
2018-06-19T12:15:55.756Z,42.20
2018-06-19T12:18:23.216Z,41.30
2018-06-19T12:20:50.538Z,40.20
2018-06-19T12:23:17.826Z,40.40
2018-06-19T12:25:45.077Z,41.20
2018-06-19T12:28:12.359Z,42.20
2018-06-19T12:30:39.619Z,42.40
2018-06-19T12:33:06.881Z,42.10
2018-06-19T12:35:34.155Z,42.00
2018-06-19T12:38:01.416Z,40.00
2018-06-19T12:40:28.696Z,39.60
2018-06-19T12:42:56.227Z,39.40
2018-06-19T12:45:23.500Z,39.30
2018-06-19T12:47:50.766Z,39.80
2018-06-19T12:50:31.838Z,40.40
2018-06-19T12:53:11.483Z,40.10
2018-06-19T12:55:50.898Z,40.70
2018-06-19T12:58:18.356Z,39.20
2018-06-19T13:00:45.796Z,38.80
2018-06-19T13:03:25.012Z,38.40
2018-06-19T13:06:04.065Z,39.70
2018-06-19T13:08:31.399Z,40.30
2018-06-19T13:10:58.986Z,40.50
2018-06-19T13:13:37.777Z,41.00
2018-06-19T13:16:10.896Z,41.90
2018-06-19T13:19:52.070Z,41.70
2018-06-19T13:22:19.361Z,41.00
2018-06-19T13:24:46.685Z,41.20
2018-06-19T13:27:14.179Z,41.40
2018-06-19T13:29:59.011Z,40.40
2018-06-19T13:32:26.606Z,42.00
2018-06-19T13:34:53.880Z,41.30
2018-06-19T13:37:21.203Z,40.70
2018-06-19T13:42:39.644Z,39.80
2018-06-19T13:45:07.676Z,40.40
2018-06-19T13:47:34.977Z,39.70
2018-06-19T13:50:02.398Z,39.60
2018-06-19T13:52:29.682Z,38.50
2018-06-19T13:57:42.768Z,41.80
2018-06-19T14:00:13.799Z,39.50
2018-06-19T14:02:41.185Z,39.60
2018-06-19T14:05:09.052Z,39.70
2018-06-19T14:07:46.592Z,40.90
2018-06-19T14:10:27.334Z,38.60
2018-06-19T14:12:56.884Z,38.80
2018-06-19T14:15:24.316Z,39.80
2018-06-19T14:17:51.586Z,38.40
2018-06-19T14:20:18.873Z,38.70
2018-06-19T14:22:46.136Z,38.90
2018-06-19T14:25:13.402Z,40.40
2018-06-19T14:27:40.674Z,39.90
2018-06-19T14:30:08.000Z,39.50
2018-06-19T14:32:35.405Z,39.50
2018-06-19T14:35:15.797Z,40.10
2018-06-19T14:37:43.342Z,40.20
2018-06-19T14:40:10.804Z,39.50
2018-06-19T14:45:06.084Z,40.60
2018-06-19T14:47:33.356Z,40.60
2018-06-19T14:50:00.615Z,41.30
2018-06-19T14:52:28.114Z,39.70
2018-06-19T14:54:55.346Z,39.10
2018-06-19T14:57:22.590Z,40.00
2018-06-19T14:59:49.848Z,39.80
2018-06-19T15:04:44.347Z,39.10
2018-06-19T15:07:11.627Z,40.30
2018-06-19T15:09:38.908Z,40.10
2018-06-19T15:14:33.476Z,40.90
2018-06-19T15:17:01.132Z,39.90
2018-06-19T15:19:28.404Z,41.00
2018-06-19T15:21:55.904Z,40.70
2018-06-19T15:24:23.160Z,41.60
2018-06-19T15:26:50.430Z,41.70
2018-06-19T15:31:44.924Z,42.10
2018-06-19T15:34:12.167Z,41.70
2018-06-19T15:36:39.477Z,42.10
2018-06-19T15:39:08.655Z,41.50
2018-06-19T15:44:03.556Z,42.00
2018-06-19T15:46:30.783Z,41.70
2018-06-19T15:48:58.075Z,41.80
2018-06-19T15:51:25.366Z,40.40
2018-06-19T15:53:52.642Z,41.80
2018-06-19T15:56:19.938Z,42.40
2018-06-19T15:58:47.207Z,42.80
2018-06-19T16:01:14.509Z,42.40
2018-06-19T16:03:41.779Z,42.80
2018-06-19T16:06:09.048Z,43.40
2018-06-19T16:08:36.303Z,42.70
2018-06-19T16:11:03.607Z,43.70
2018-06-19T16:13:30.849Z,42.90
2018-06-19T16:15:58.140Z,44.00
2018-06-19T16:18:25.403Z,42.80
2018-06-19T16:20:52.699Z,43.10
2018-06-19T16:23:19.939Z,43.30
2018-06-19T16:25:47.179Z,43.00
2018-06-19T16:28:14.443Z,43.40
2018-06-19T16:30:41.762Z,43.60
2018-06-19T16:33:09.008Z,44.30
2018-06-19T16:38:03.706Z,44.40
2018-06-19T16:40:30.995Z,44.60
2018-06-19T16:42:58.259Z,43.70
2018-06-19T16:45:25.558Z,43.60
2018-06-19T16:50:20.020Z,43.40
2018-06-19T16:52:48.186Z,44.10
2018-06-19T16:55:15.451Z,43.90
2018-06-19T16:57:45.156Z,44.30
2018-06-19T17:00:12.508Z,43.70
2018-06-19T17:02:39.737Z,44.00
2018-06-19T17:05:06.999Z,44.30
2018-06-19T17:07:34.231Z,45.20
2018-06-19T17:10:01.493Z,45.90
2018-06-19T17:12:28.756Z,45.40
2018-06-19T17:14:56.008Z,45.60
2018-06-19T17:17:23.314Z,46.10
2018-06-19T17:19:50.591Z,46.00
2018-06-19T17:22:17.864Z,46.10
2018-06-19T17:24:45.147Z,46.20
2018-06-19T17:27:12.412Z,46.60
2018-06-19T17:29:39.664Z,46.00
2018-06-19T17:32:06.919Z,47.10
2018-06-19T17:34:34.388Z,47.10
2018-06-19T17:39:29.022Z,47.50
2018-06-19T17:41:56.276Z,47.20
2018-06-19T17:44:23.531Z,47.20
2018-06-19T17:46:50.828Z,46.70
2018-06-19T17:49:18.087Z,47.20
2018-06-19T17:51:45.475Z,47.20
2018-06-19T17:54:12.744Z,46.20
2018-06-19T17:56:40.006Z,47.80
2018-06-19T17:59:07.276Z,47.80
2018-06-19T18:01:34.543Z,47.70
2018-06-19T18:06:29.099Z,48.20
2018-06-19T18:08:56.359Z,48.30
2018-06-19T18:11:24.493Z,48.60
2018-06-19T18:13:51.808Z,48.80
2018-06-19T18:16:19.072Z,48.70
2018-06-19T18:18:46.375Z,49.00
2018-06-19T18:21:13.647Z,48.80
2018-06-19T18:23:40.980Z,49.00
2018-06-19T18:26:08.237Z,49.40
2018-06-19T18:28:35.600Z,49.60
2018-06-19T18:31:02.898Z,49.70
2018-06-19T18:33:30.182Z,48.80
2018-06-19T18:35:57.460Z,50.00
2018-06-19T18:38:25.095Z,49.70
2018-06-19T18:40:52.426Z,50.10
2018-06-19T18:43:19.768Z,50.30
2018-06-19T18:45:47.065Z,50.00
2018-06-19T18:48:14.331Z,50.60
2018-06-19T18:53:08.907Z,50.60
2018-06-19T18:55:36.205Z,50.80
2018-06-19T18:58:03.494Z,51.00
2018-06-19T19:02:58.138Z,51.10
2018-06-19T19:05:25.551Z,51.30
2018-06-19T19:07:52.839Z,51.50
2018-06-19T19:10:25.801Z,51.50
2018-06-19T19:12:53.410Z,51.70
2018-06-19T19:15:26.489Z,52.00
2018-06-19T19:17:59.436Z,52.30
2018-06-19T19:20:26.872Z,52.80
2018-06-19T19:22:54.328Z,53.20
2018-06-19T19:25:21.931Z,53.20
2018-06-19T19:27:59.424Z,53.10
2018-06-19T19:30:26.772Z,53.40
2018-06-19T19:32:54.107Z,53.60
2018-06-19T19:35:21.546Z,53.80
2018-06-19T19:37:55.324Z,53.60
2018-06-19T19:40:22.807Z,53.90
2018-06-19T19:42:50.141Z,53.90
2018-06-19T19:45:17.508Z,54.10
2018-06-19T19:47:51.294Z,54.20
2018-06-19T19:50:18.591Z,54.60
2018-06-19T19:52:46.033Z,54.60
2018-06-19T19:55:13.359Z,54.40
2018-06-19T19:57:46.596Z,54.40
2018-06-19T20:00:19.033Z,54.50
2018-06-19T20:02:46.875Z,54.50
2018-06-19T20:07:41.456Z,54.60
2018-06-19T20:10:08.755Z,55.00
2018-06-19T20:12:36.066Z,54.70
2018-06-19T20:15:03.627Z,55.20
2018-06-19T20:17:30.907Z,55.10
2018-06-19T20:19:58.509Z,55.10
2018-06-19T20:22:25.874Z,55.80
2018-06-19T20:24:53.120Z,55.90
2018-06-19T20:27:20.392Z,56.60
2018-06-19T20:29:47.948Z,57.40
2018-06-19T20:32:15.276Z,57.50
2018-06-19T20:34:42.547Z,57.40
2018-06-19T20:39:37.112Z,57.50
2018-06-19T20:42:04.443Z,57.80
2018-06-19T20:44:31.755Z,57.80
2018-06-19T20:46:59.152Z,57.00
2018-06-19T20:49:26.616Z,58.50
2018-06-19T20:51:53.925Z,57.90
2018-06-19T20:54:21.308Z,58.40
2018-06-19T20:56:48.768Z,58.50
2018-06-19T20:59:16.129Z,59.30
2018-06-19T21:01:43.755Z,59.10
2018-06-19T21:04:11.119Z,59.20
2018-06-19T21:06:38.462Z,59.20
2018-06-19T21:09:10.025Z,59.30
2018-06-19T21:11:37.323Z,60.90
2018-06-19T21:14:04.636Z,61.70
2018-06-19T21:16:31.983Z,61.30
2018-06-19T21:18:59.292Z,61.70
2018-06-19T21:21:26.981Z,62.20
2018-06-19T21:23:54.299Z,64.00
2018-06-19T21:26:21.588Z,62.70
2018-06-19T21:28:48.871Z,63.00
2018-06-19T21:31:16.187Z,62.50
2018-06-19T21:33:43.544Z,62.30
2018-06-19T21:36:11.132Z,62.60
2018-06-19T21:38:38.516Z,62.80
2018-06-19T21:41:06.244Z,62.70
2018-06-19T21:43:33.594Z,62.50
2018-06-19T21:46:00.964Z,62.60
2018-06-19T21:48:28.309Z,62.80
2018-06-19T21:50:55.870Z,63.00
2018-06-19T21:53:23.186Z,63.40
2018-06-19T21:55:50.554Z,63.60
2018-06-19T21:58:18.008Z,63.10
2018-06-19T22:00:45.315Z,64.60
2018-06-19T22:03:12.756Z,65.10
2018-06-19T22:05:40.008Z,65.60
2018-06-19T22:08:07.324Z,65.30
2018-06-19T22:10:34.678Z,66.60
2018-06-19T22:13:01.977Z,67.10
2018-06-19T22:15:29.351Z,65.70
2018-06-19T22:17:57.211Z,65.30
2018-06-19T22:22:52.326Z,65.70
2018-06-19T22:25:19.666Z,65.50
2018-06-19T22:27:47.408Z,66.00
2018-06-19T22:30:14.707Z,66.00
2018-06-19T22:32:42.045Z,66.20
2018-06-19T22:35:09.414Z,66.30
2018-06-19T22:40:04.024Z,66.60
2018-06-19T22:42:31.904Z,66.90
2018-06-19T22:44:59.356Z,66.30
2018-06-19T22:47:26.748Z,67.20
2018-06-19T22:52:21.533Z,67.60
2018-06-19T22:54:48.881Z,67.80
2018-06-19T22:57:16.183Z,67.30
2018-06-19T22:59:44.176Z,69.40
2018-06-19T23:02:11.654Z,69.70
2018-06-19T23:04:39.039Z,69.20
2018-06-19T23:09:33.651Z,69.70
2018-06-19T23:12:01.015Z,70.20
2018-06-19T23:14:28.274Z,70.60
2018-06-19T23:16:55.626Z,70.70
2018-06-19T23:19:22.887Z,71.10
2018-06-19T23:21:50.299Z,71.50
2018-06-19T23:26:45.123Z,72.90
2018-06-19T23:29:12.529Z,73.30
2018-06-19T23:31:39.813Z,73.40
2018-06-19T23:34:07.376Z,73.60
2018-06-19T23:36:34.696Z,73.90
2018-06-19T23:39:02.473Z,74.10
2018-06-19T23:41:29.743Z,72.10
2018-06-19T23:43:57.279Z,72.90
2018-06-19T23:46:24.567Z,74.00
2018-06-19T23:48:51.892Z,74.10
2018-06-19T23:51:19.297Z,74.10
2018-06-19T23:53:46.612Z,74.30
2018-06-19T23:56:14.389Z,74.10
2018-06-19T23:58:42.052Z,73.80
